Wind From: 11-12-2017 04:25 Until: 16:00 warning for: Wind Level: Orange info button

Power and phone distribution networks may be disrupted for relatively long periods., Roofs and chimneys can be damaged. , Tree branches may break. , Vehicles can be deported. , Traffic may be disrupted, particularly on secondary roads in forest areas. Limit your trips. , Limit your speed in highway driving, especially if you drive a vehicle or hitch sensitive to wind. , Do not go for walks in forests or along the coast., In town, be vigilant against possible falling objects., Do not work on roofs and do not touch any electrical line fallen on the ground., Store or secure sensitive objects to wind or likely to be damaged., Always install power generators outside buildings. 


Meteo18 Weather Cam more information Meteo18 Weather Cam


Thunder radar more information blitzortung!


Rain radar more information rain snow radar


Visit our other weather sites:

Template documentation
and downloads

And another site



Weather Underground History page Text

Daily Summary for October 14, 2016 Units:  Metric    English   Both
« Previous Day
Next Day »
Daily Weekly Monthly Yearly Custom
  High: Low: Average:
Temperature: 13.3 °C 8.6 °C 11.1 °C
Dew Point: 12.7 °C 7.8 °C 10.4 °C
Humidity: 97 % 93 % 95 %
Wind Speed: 19.3 km/h 0.0 km/h 2.1 km/h
Wind Gust: 25.7 km/h - -
Wind:- - SE
Pressure: 1005.3 hPa 1000.2 hPa -
Precipitation: 9.9 mm    
Historical Graphs
 
 
Tabular Data for October 14, 2016
Time Temperature Dew Point Pressure Wind Wind Speed Wind Gust Humidity Rainfall Rate (Hourly)
00:02 9.9 °C 8.8 °C 1003.6 hPa Calm   3.2 km/h 93 % 0.0 mm
00:07 9.9 °C 8.8 °C 1003.6 hPa Calm   4.8 km/h 93 % 0.0 mm
00:12 9.8 °C 8.9 °C 1003.6 hPa Calm   4.8 km/h 94 % 0.0 mm
00:17 9.8 °C 8.9 °C 1003.6 hPa Calm   4.8 km/h 94 % 0.0 mm
00:22 9.9 °C 9.0 °C 1003.6 hPa Calm   4.8 km/h 94 % 0.0 mm
00:27 9.8 °C 8.7 °C 1003.6 hPa Calm   4.8 km/h 93 % 0.0 mm
00:32 9.8 °C 8.7 °C 1003.6 hPa Calm   4.8 km/h 93 % 0.0 mm
00:42 9.8 °C 8.7 °C 1003.6 hPa Calm   3.2 km/h 93 % 0.0 mm
00:52 9.7 °C 8.8 °C 1003.6 hPa ESE 1.6 km/h 4.8 km/h 94 % 0.0 mm
00:57 9.7 °C 8.8 °C 1003.3 hPa Calm   4.8 km/h 94 % 0.0 mm
01:02 9.6 °C 8.7 °C 1003.3 hPa Calm   4.8 km/h 94 % 0.0 mm
01:07 9.6 °C 8.7 °C 1003.3 hPa Calm   4.8 km/h 94 % 0.0 mm
01:12 9.6 °C 8.7 °C 1003.3 hPa SE 1.6 km/h 3.2 km/h 94 % 0.0 mm
01:17 9.6 °C 8.7 °C 1003.3 hPa East 3.2 km/h 4.8 km/h 94 % 0.0 mm
01:22 9.7 °C 8.8 °C 1003.3 hPa Calm   4.8 km/h 94 % 0.0 mm
01:32 9.6 °C 8.7 °C 1002.9 hPa Calm   3.2 km/h 94 % 0.0 mm
01:37 9.6 °C 8.7 °C 1002.9 hPa Calm   3.2 km/h 94 % 0.0 mm
01:42 9.5 °C 8.6 °C 1002.9 hPa Calm   3.2 km/h 94 % 0.0 mm
01:47 9.4 °C 8.5 °C 1003.3 hPa Calm   1.6 km/h 94 % 0.0 mm
01:57 9.3 °C 8.4 °C 1003.3 hPa Calm     94 % 0.0 mm
02:02 9.3 °C 8.4 °C 1003.3 hPa Calm   1.6 km/h 94 % 0.0 mm
02:07 9.3 °C 8.4 °C 1003.3 hPa Calm   1.6 km/h 94 % 0.0 mm
02:12 9.4 °C 8.5 °C 1003.3 hPa Calm   1.6 km/h 94 % 0.0 mm
02:17 9.3 °C 8.4 °C 1003.3 hPa Calm   1.6 km/h 94 % 0.0 mm
02:22 9.3 °C 8.5 °C 1002.9 hPa Calm   1.6 km/h 95 % 0.0 mm
02:27 9.3 °C 8.4 °C 1002.9 hPa Calm     94 % 0.0 mm
02:32 9.3 °C 8.5 °C 1002.9 hPa Calm     95 % 0.0 mm
02:37 9.3 °C 8.5 °C 1002.9 hPa Calm     95 % 0.0 mm
02:42 9.4 °C 8.6 °C 1002.9 hPa Calm     95 % 0.0 mm
02:47 9.4 °C 8.6 °C 1002.9 hPa Calm     95 % 0.0 mm
02:52 9.4 °C 8.6 °C 1002.9 hPa Calm     95 % 0.0 mm
02:57 9.3 °C 8.4 °C 1002.9 hPa Calm     94 % 0.0 mm
03:02 9.3 °C 8.5 °C 1002.6 hPa Calm     95 % 0.0 mm
03:07 9.4 °C 8.6 °C 1002.6 hPa Calm     95 % 0.0 mm
03:12 9.4 °C 8.6 °C 1002.6 hPa Calm     95 % 0.0 mm
03:17 9.4 °C 8.6 °C 1002.6 hPa Calm     95 % 0.0 mm
03:22 9.3 °C 8.5 °C 1002.3 hPa Calm     95 % 0.0 mm
03:27 9.2 °C 8.4 °C 1002.3 hPa Calm     95 % 0.0 mm
03:32 9.1 °C 8.3 °C 1002.3 hPa Calm     95 % 0.0 mm
03:37 9.2 °C 8.4 °C 1002.3 hPa Calm     95 % 0.0 mm
03:42 9.2 °C 8.4 °C 1002.3 hPa Calm     95 % 0.0 mm
03:47 9.1 °C 8.2 °C 1002.3 hPa Calm     94 % 0.0 mm
03:57 8.9 °C 8.1 °C 1001.9 hPa Calm     95 % 0.0 mm
04:02 8.9 °C 8.1 °C 1001.9 hPa Calm     95 % 0.0 mm
04:07 9.0 °C 8.2 °C 1001.9 hPa Calm     95 % 0.0 mm
04:12 8.9 °C 8.1 °C 1001.9 hPa Calm     95 % 0.0 mm
04:17 8.8 °C 8.0 °C 1001.9 hPa Calm     95 % 0.0 mm
04:22 8.7 °C 7.9 °C 1001.9 hPa Calm     95 % 0.0 mm
04:27 8.7 °C 7.9 °C 1001.9 hPa Calm   1.6 km/h 95 % 0.0 mm
04:32 8.6 °C 7.8 °C 1001.6 hPa Calm   1.6 km/h 95 % 0.0 mm
04:37 8.6 °C 7.8 °C 1001.6 hPa Calm   1.6 km/h 95 % 0.0 mm
04:42 8.6 °C 8.0 °C 1001.6 hPa Calm   1.6 km/h 96 % 0.0 mm
04:47 8.7 °C 8.1 °C 1001.6 hPa Calm     96 % 0.0 mm
04:52 8.8 °C 8.2 °C 1001.6 hPa Calm     96 % 0.0 mm
04:57 9.0 °C 8.4 °C 1001.2 hPa Calm     96 % 0.0 mm
05:02 9.0 °C 8.4 °C 1001.2 hPa Calm     96 % 0.0 mm
05:12 8.9 °C 8.3 °C 1001.6 hPa Calm     96 % 0.0 mm
05:17 8.8 °C 8.0 °C 1001.6 hPa Calm     95 % 0.0 mm
05:22 8.8 °C 8.2 °C 1001.6 hPa Calm     96 % 0.0 mm
05:32 8.8 °C 8.2 °C 1001.6 hPa Calm     96 % 0.0 mm
05:42 8.9 °C 8.3 °C 1001.6 hPa Calm     96 % 0.0 mm
05:52 9.2 °C 8.6 °C 1001.6 hPa Calm     96 % 0.0 mm
06:02 9.4 °C 8.8 °C 1001.6 hPa Calm     96 % 0.0 mm
06:17 9.5 °C 8.9 °C 1001.6 hPa Calm     96 % 0.0 mm
06:22 9.5 °C 8.9 °C 1001.6 hPa Calm     96 % 0.0 mm
06:32 9.5 °C 8.9 °C 1001.6 hPa Calm     96 % 0.3 mm
06:37 9.4 °C 8.8 °C 1001.6 hPa Calm     96 % 0.3 mm
06:42 9.4 °C 8.8 °C 1001.6 hPa Calm     96 % 0.3 mm
06:47 9.4 °C 8.8 °C 1001.6 hPa Calm     96 % 0.3 mm
06:52 9.5 °C 8.9 °C 1001.9 hPa Calm     96 % 0.3 mm
07:02 9.5 °C 8.9 °C 1001.6 hPa Calm     96 % 0.5 mm
07:12 9.6 °C 9.0 °C 1001.6 hPa Calm     96 % 0.5 mm
07:17 9.6 °C 9.0 °C 1001.6 hPa SE 1.6 km/h   96 % 0.3 mm
07:22 9.5 °C 8.9 °C 1001.6 hPa SE 1.6 km/h 3.2 km/h 96 % 0.3 mm
07:27 9.5 °C 8.9 °C 1001.6 hPa SE 1.6 km/h 3.2 km/h 96 % 0.3 mm
07:32 9.5 °C 8.9 °C 1001.2 hPa ESE 3.2 km/h 3.2 km/h 96 % 0.3 mm
07:37 9.5 °C 8.9 °C 1001.2 hPa SE 1.6 km/h 4.8 km/h 96 % 0.3 mm
07:42 9.5 °C 8.9 °C 1001.2 hPa Calm   4.8 km/h 96 % 0.3 mm
07:47 9.6 °C 9.0 °C 1001.2 hPa SE 1.6 km/h 4.8 km/h 96 % 0.3 mm
07:52 9.6 °C 9.0 °C 1001.2 hPa Calm   3.2 km/h 96 % 0.3 mm
07:57 9.6 °C 9.0 °C 1001.2 hPa Calm   1.6 km/h 96 % 0.0 mm
08:07 9.7 °C 9.1 °C 1001.2 hPa SE 1.6 km/h   96 % 0.0 mm
08:17 9.8 °C 9.2 °C 1001.2 hPa SE 1.6 km/h 3.2 km/h 96 % 0.0 mm
08:22 9.8 °C 9.2 °C 1001.2 hPa ESE 3.2 km/h 3.2 km/h 96 % 0.0 mm
08:32 9.7 °C 9.1 °C 1001.2 hPa SE 3.2 km/h 4.8 km/h 96 % 0.0 mm
08:37 9.7 °C 9.1 °C 1001.2 hPa SE 1.6 km/h 6.4 km/h 96 % 0.0 mm
08:42 9.7 °C 9.1 °C 1001.2 hPa Calm   6.4 km/h 96 % 0.0 mm
08:52 9.7 °C 9.1 °C 1001.2 hPa ENE 3.2 km/h 4.8 km/h 96 % 0.0 mm
08:57 9.7 °C 9.1 °C 1001.2 hPa ENE 1.6 km/h 3.2 km/h 96 % 0.0 mm
09:02 9.8 °C 9.2 °C 1001.2 hPa NE 3.2 km/h 4.8 km/h 96 % 0.0 mm
09:12 9.8 °C 9.3 °C 1001.2 hPa NE 1.6 km/h 6.4 km/h 97 % 0.0 mm
09:17 9.9 °C 9.4 °C 1001.2 hPa NE 4.8 km/h 6.4 km/h 97 % 0.0 mm
09:32 10.0 °C 9.5 °C 1001.2 hPa NE 6.4 km/h 9.7 km/h 97 % 0.0 mm
09:42 10.1 °C 9.6 °C 1001.2 hPa NE 6.4 km/h 9.7 km/h 97 % 0.0 mm
09:52 10.2 °C 9.7 °C 1001.2 hPa NE 4.8 km/h 8.0 km/h 97 % 0.0 mm
09:57 10.3 °C 9.8 °C 1001.2 hPa NE 4.8 km/h 6.4 km/h 97 % 0.0 mm
10:02 10.3 °C 9.8 °C 1001.6 hPa NE 6.4 km/h 6.4 km/h 97 % 0.0 mm
10:12 10.3 °C 9.8 °C 1001.6 hPa NE 4.8 km/h 8.0 km/h 97 % 0.0 mm
10:17 10.4 °C 9.9 °C 1001.6 hPa NE 3.2 km/h 8.0 km/h 97 % 0.0 mm
10:22 10.4 °C 9.9 °C 1001.6 hPa ENE 4.8 km/h 8.0 km/h 97 % 0.0 mm
10:32 10.5 °C 10.0 °C 1001.9 hPa ENE 4.8 km/h 8.0 km/h 97 % 0.0 mm
10:42 10.6 °C 10.1 °C 1001.9 hPa NE 6.4 km/h 6.4 km/h 97 % 0.0 mm
10:47 10.6 °C 10.1 °C 1001.9 hPa ENE 1.6 km/h 8.0 km/h 97 % 0.0 mm
10:52 10.7 °C 10.2 °C 1001.6 hPa NE 3.2 km/h 8.0 km/h 97 % 0.0 mm
11:02 10.9 °C 10.4 °C 1001.9 hPa East 3.2 km/h 8.0 km/h 97 % 0.0 mm
11:07 10.9 °C 10.4 °C 1001.6 hPa ENE 4.8 km/h 8.0 km/h 97 % 0.0 mm
11:12 11.0 °C 10.5 °C 1001.6 hPa ENE 4.8 km/h 8.0 km/h 97 % 0.0 mm
11:17 11.1 °C 10.6 °C 1001.6 hPa ENE 4.8 km/h 8.0 km/h 97 % 0.0 mm
11:27 11.2 °C 10.6 °C 1001.6 hPa ENE 9.7 km/h 9.7 km/h 96 % 0.0 mm
11:32 11.2 °C 10.6 °C 1001.6 hPa ENE 11.3 km/h 11.3 km/h 96 % 0.0 mm
11:42 11.3 °C 10.7 °C 1001.6 hPa ENE 6.4 km/h 11.3 km/h 96 % 0.0 mm
11:47 11.3 °C 10.7 °C 1001.6 hPa NE 3.2 km/h 11.3 km/h 96 % 0.0 mm
11:52 11.3 °C 10.7 °C 1001.6 hPa ENE 4.8 km/h 9.7 km/h 96 % 0.0 mm
11:57 11.3 °C 10.7 °C 1001.6 hPa East 4.8 km/h 9.7 km/h 96 % 0.0 mm
12:02 11.4 °C 10.8 °C 1001.6 hPa ENE 4.8 km/h 8.0 km/h 96 % 0.0 mm
12:12 11.6 °C 11.0 °C 1001.2 hPa ENE 1.6 km/h 8.0 km/h 96 % 0.0 mm
12:17 11.6 °C 11.0 °C 1001.2 hPa NE 3.2 km/h 8.0 km/h 96 % 0.0 mm
12:22 11.7 °C 11.1 °C 1001.2 hPa Calm   8.0 km/h 96 % 0.0 mm
12:32 11.8 °C 11.2 °C 1000.9 hPa Calm   6.4 km/h 96 % 0.3 mm
12:42 12.1 °C 11.5 °C 1001.2 hPa Calm   4.8 km/h 96 % 0.3 mm
12:47 12.2 °C 11.6 °C 1001.2 hPa NE 1.6 km/h 4.8 km/h 96 % 0.3 mm
12:52 12.3 °C 11.7 °C 1000.9 hPa NE 1.6 km/h 4.8 km/h 96 % 0.3 mm
12:57 12.5 °C 11.9 °C 1000.9 hPa ENE 3.2 km/h 3.2 km/h 96 % 0.3 mm
13:02 12.4 °C 11.8 °C 1001.2 hPa NNE 1.6 km/h 3.2 km/h 96 % 0.3 mm
13:07 12.6 °C 12.0 °C 1001.2 hPa ENE 4.8 km/h 4.8 km/h 96 % 0.3 mm
13:12 12.7 °C 12.1 °C 1000.9 hPa NE 6.4 km/h 6.4 km/h 96 % 0.3 mm
13:17 12.7 °C 11.9 °C 1000.9 hPa NNE 1.6 km/h 6.4 km/h 95 % 0.3 mm
13:22 12.8 °C 12.0 °C 1000.9 hPa Calm   6.4 km/h 95 % 0.0 mm
13:27 12.9 °C 12.1 °C 1000.6 hPa Calm   6.4 km/h 95 % 0.0 mm
13:32 12.9 °C 12.0 °C 1000.6 hPa ENE 3.2 km/h 4.8 km/h 94 % 0.0 mm
13:37 12.9 °C 12.0 °C 1000.6 hPa ENE 3.2 km/h 4.8 km/h 94 % 0.0 mm
13:42 13.0 °C 12.1 °C 1000.6 hPa Calm   4.8 km/h 94 % 0.0 mm
13:57 13.1 °C 12.0 °C 1000.6 hPa ENE 4.8 km/h 4.8 km/h 93 % 0.0 mm
14:02 13.1 °C 12.0 °C 1000.6 hPa ENE 4.8 km/h 8.0 km/h 93 % 0.0 mm
14:07 13.1 °C 12.0 °C 1000.6 hPa NE 3.2 km/h 8.0 km/h 93 % 0.0 mm
14:12 13.2 °C 12.3 °C 1000.6 hPa ENE 3.2 km/h 8.0 km/h 94 % 0.0 mm
14:17 13.2 °C 12.1 °C 1000.6 hPa ENE 3.2 km/h 8.0 km/h 93 % 0.0 mm
14:22 13.2 °C 12.3 °C 1000.6 hPa Calm   6.4 km/h 94 % 0.0 mm
14:27 13.2 °C 12.1 °C 1000.6 hPa East 4.8 km/h 6.4 km/h 93 % 0.0 mm
14:32 13.2 °C 12.1 °C 1000.6 hPa ENE 4.8 km/h 8.0 km/h 93 % 0.0 mm
14:37 13.2 °C 12.1 °C 1000.9 hPa ENE 4.8 km/h 8.0 km/h 93 % 0.0 mm
14:42 13.2 °C 12.3 °C 1000.9 hPa ENE 8.0 km/h 8.0 km/h 94 % 0.0 mm
14:47 13.2 °C 12.3 °C 1000.9 hPa ENE 6.4 km/h 8.0 km/h 94 % 0.0 mm
14:57 13.2 °C 12.3 °C 1000.9 hPa ENE 4.8 km/h 9.7 km/h 94 % 0.0 mm
15:02 13.1 °C 12.2 °C 1000.6 hPa ENE 3.2 km/h 9.7 km/h 94 % 0.0 mm
15:12 12.9 °C 12.0 °C 1000.9 hPa ENE 3.2 km/h 9.7 km/h 94 % 0.3 mm
15:17 13.0 °C 12.2 °C 1000.6 hPa NE 3.2 km/h 9.7 km/h 95 % 0.3 mm
15:22 13.0 °C 12.2 °C 1000.6 hPa NE 3.2 km/h 9.7 km/h 95 % 0.3 mm
15:27 13.0 °C 12.2 °C 1000.6 hPa NNE 3.2 km/h 6.4 km/h 95 % 0.3 mm
15:37 13.1 °C 12.3 °C 1000.6 hPa ENE 3.2 km/h 6.4 km/h 95 % 0.3 mm
15:42 13.1 °C 12.3 °C 1000.6 hPa ENE 1.6 km/h 6.4 km/h 95 % 0.3 mm
15:47 13.1 °C 12.3 °C 1000.6 hPa NE 1.6 km/h 6.4 km/h 95 % 0.3 mm
15:52 13.1 °C 12.3 °C 1000.6 hPa ENE 1.6 km/h 4.8 km/h 95 % 0.3 mm
15:57 13.1 °C 12.3 °C 1000.6 hPa ENE 1.6 km/h 4.8 km/h 95 % 0.5 mm
16:02 13.1 °C 12.3 °C 1000.6 hPa Calm   4.8 km/h 95 % 0.5 mm
16:07 13.1 °C 12.5 °C 1000.6 hPa Calm   3.2 km/h 96 % 0.3 mm
16:12 13.1 °C 12.5 °C 1000.6 hPa Calm   3.2 km/h 96 % 0.5 mm
16:22 13.1 °C 12.5 °C 1000.6 hPa Calm   3.2 km/h 96 % 0.5 mm
16:27 13.1 °C 12.5 °C 1000.2 hPa Calm   3.2 km/h 96 % 0.5 mm
16:32 13.2 °C 12.6 °C 1000.6 hPa Calm   1.6 km/h 96 % 0.5 mm
16:37 13.2 °C 12.6 °C 1000.6 hPa Calm   1.6 km/h 96 % 0.5 mm
16:42 13.2 °C 12.6 °C 1000.6 hPa Calm     96 % 0.5 mm
16:47 13.2 °C 12.6 °C 1000.6 hPa Calm     96 % 0.5 mm
16:52 13.2 °C 12.6 °C 1000.6 hPa Calm     96 % 0.3 mm
16:57 13.2 °C 12.6 °C 1000.6 hPa Calm     96 % 0.3 mm
17:02 13.2 °C 12.6 °C 1000.6 hPa Calm     96 % 0.3 mm
17:07 13.2 °C 12.6 °C 1000.6 hPa Calm     96 % 0.3 mm
17:12 13.2 °C 12.6 °C 1000.6 hPa Calm     96 % 0.0 mm
17:17 13.3 °C 12.7 °C 1000.6 hPa Calm     96 % 0.0 mm
17:22 13.3 °C 12.7 °C 1000.6 hPa Calm     96 % 0.0 mm
17:27 13.2 °C 12.6 °C 1000.6 hPa Calm     96 % 0.0 mm
17:32 13.2 °C 12.6 °C 1000.6 hPa Calm     96 % 0.0 mm
17:37 13.2 °C 12.6 °C 1000.6 hPa Calm     96 % 0.0 mm
17:42 13.2 °C 12.6 °C 1000.6 hPa Calm     96 % 0.0 mm
17:47 13.2 °C 12.6 °C 1000.9 hPa Calm     96 % 0.0 mm
17:52 13.2 °C 12.6 °C 1000.9 hPa Calm     96 % 0.0 mm
17:57 13.2 °C 12.6 °C 1000.9 hPa Calm     96 % 0.0 mm
18:02 13.2 °C 12.4 °C 1000.9 hPa Calm     95 % 0.0 mm
18:07 13.2 °C 12.4 °C 1000.9 hPa Calm     95 % 0.0 mm
18:12 13.2 °C 12.4 °C 1000.9 hPa Calm     95 % 0.3 mm
18:17 13.2 °C 12.6 °C 1000.9 hPa Calm     96 % 0.3 mm
18:22 13.2 °C 12.4 °C 1000.9 hPa Calm     95 % 0.5 mm
18:37 13.1 °C 12.5 °C 1000.9 hPa Calm     96 % 1.0 mm
18:42 13.1 °C 12.5 °C 1000.9 hPa Calm     96 % 1.0 mm
18:47 13.1 °C 12.5 °C 1001.2 hPa Calm     96 % 1.3 mm
18:57 13.1 °C 12.5 °C 1001.2 hPa Calm     96 % 2.0 mm
19:02 13.1 °C 12.5 °C 1001.2 hPa Calm     96 % 2.3 mm
19:07 13.0 °C 12.4 °C 1001.2 hPa Calm     96 % 2.3 mm
19:12 13.0 °C 12.4 °C 1001.2 hPa Calm     96 % 2.3 mm
19:17 12.9 °C 12.3 °C 1001.2 hPa Calm     96 % 2.3 mm
19:27 12.9 °C 12.3 °C 1001.6 hPa Calm     96 % 2.0 mm
19:37 12.8 °C 12.2 °C 1001.6 hPa Calm     96 % 2.3 mm
19:42 12.8 °C 12.2 °C 1001.6 hPa Calm     96 % 2.3 mm
19:47 12.8 °C 12.2 °C 1001.6 hPa Calm     96 % 2.3 mm
19:52 12.8 °C 12.2 °C 1001.9 hPa Calm     96 % 2.3 mm
19:57 12.8 °C 12.2 °C 1001.9 hPa Calm     96 % 2.3 mm
20:02 12.8 °C 12.2 °C 1001.9 hPa Calm     96 % 2.0 mm
20:07 12.8 °C 12.2 °C 1002.3 hPa Calm     96 % 2.0 mm
20:12 12.8 °C 12.3 °C 1002.3 hPa Calm     97 % 2.0 mm
20:22 12.8 °C 12.2 °C 1002.3 hPa WSW 4.8 km/h 4.8 km/h 96 % 2.3 mm
20:27 12.7 °C 12.1 °C 1002.3 hPa WNW 1.6 km/h 8.0 km/h 96 % 2.3 mm
20:32 12.6 °C 12.0 °C 1002.3 hPa WNW 8.0 km/h 8.0 km/h 96 % 2.0 mm
20:37 12.6 °C 12.0 °C 1002.3 hPa West 1.6 km/h 11.3 km/h 96 % 2.0 mm
20:42 12.5 °C 11.9 °C 1002.3 hPa West 1.6 km/h 11.3 km/h 96 % 1.8 mm
20:47 12.4 °C 11.8 °C 1002.3 hPa WNW 4.8 km/h 11.3 km/h 96 % 1.8 mm
20:52 12.3 °C 11.7 °C 1002.3 hPa West 3.2 km/h 12.9 km/h 96 % 1.5 mm
20:57 12.2 °C 11.4 °C 1002.6 hPa WNW 1.6 km/h 12.9 km/h 95 % 1.5 mm
21:02 12.1 °C 11.3 °C 1002.6 hPa West 8.0 km/h 12.9 km/h 95 % 1.5 mm
21:07 12.0 °C 11.2 °C 1002.6 hPa West 6.4 km/h 12.9 km/h 95 % 1.5 mm
21:12 11.9 °C 11.1 °C 1002.6 hPa WSW 8.0 km/h 11.3 km/h 95 % 1.5 mm
21:17 11.9 °C 11.1 °C 1002.6 hPa West 9.7 km/h 11.3 km/h 95 % 1.3 mm
21:22 11.8 °C 11.0 °C 1002.6 hPa West 3.2 km/h 12.9 km/h 95 % 1.0 mm
21:27 11.8 °C 11.0 °C 1002.9 hPa WSW 1.6 km/h 12.9 km/h 95 % 1.0 mm
21:32 11.8 °C 11.0 °C 1002.9 hPa Calm   12.9 km/h 95 % 0.8 mm
21:37 11.7 °C 10.9 °C 1002.9 hPa Calm   9.7 km/h 95 % 1.0 mm
21:47 11.6 °C 10.8 °C 1003.3 hPa WSW 1.6 km/h 6.4 km/h 95 % 1.3 mm
21:57 11.5 °C 10.7 °C 1003.3 hPa SW 3.2 km/h 8.0 km/h 95 % 1.5 mm
22:02 11.4 °C 10.6 °C 1003.6 hPa SW 1.6 km/h 8.0 km/h 95 % 1.5 mm
22:07 11.4 °C 10.6 °C 1003.6 hPa SW 6.4 km/h 11.3 km/h 95 % 1.5 mm
22:12 11.4 °C 10.6 °C 1003.6 hPa WSW 9.7 km/h 11.3 km/h 95 % 1.5 mm
22:17 11.4 °C 10.6 °C 1003.6 hPa WSW 3.2 km/h 16.1 km/h 95 % 1.5 mm
22:27 11.4 °C 10.6 °C 1003.9 hPa WSW 4.8 km/h 16.1 km/h 95 % 1.5 mm
22:32 11.4 °C 10.6 °C 1003.9 hPa SW 4.8 km/h 12.9 km/h 95 % 1.5 mm
22:42 11.3 °C 10.5 °C 1003.9 hPa West 6.4 km/h 14.5 km/h 95 % 1.5 mm
22:47 11.3 °C 10.5 °C 1003.9 hPa WSW 3.2 km/h 16.1 km/h 95 % 1.5 mm
22:57 11.3 °C 10.5 °C 1004.3 hPa WSW 6.4 km/h 17.7 km/h 95 % 1.0 mm
23:02 11.2 °C 10.4 °C 1004.3 hPa West 12.9 km/h 17.7 km/h 95 % 0.8 mm
23:07 11.2 °C 10.4 °C 1004.3 hPa WSW 8.0 km/h 17.7 km/h 95 % 1.0 mm
23:12 11.1 °C 10.3 °C 1004.6 hPa West 3.2 km/h 17.7 km/h 95 % 0.8 mm
23:17 11.1 °C 10.3 °C 1004.6 hPa West 11.3 km/h 17.7 km/h 95 % 0.8 mm
23:22 11.0 °C 10.2 °C 1004.6 hPa West 11.3 km/h 20.9 km/h 95 % 0.5 mm
23:27 10.9 °C 10.1 °C 1005.0 hPa WSW 4.8 km/h 20.9 km/h 95 % 0.5 mm
23:32 10.9 °C 10.1 °C 1005.0 hPa West 11.3 km/h 20.9 km/h 95 % 0.5 mm
23:37 10.8 °C 10.0 °C 1005.0 hPa WSW 19.3 km/h 25.7 km/h 95 % 0.5 mm
23:42 10.8 °C 10.0 °C 1005.0 hPa WSW 12.9 km/h 25.7 km/h 95 % 0.5 mm
23:47 10.8 °C 10.0 °C 1005.0 hPa West 11.3 km/h 25.7 km/h 95 % 0.5 mm
23:52 10.8 °C 10.0 °C 1005.0 hPa West 6.4 km/h 24.1 km/h 95 % 0.5 mm
23:57 10.7 °C 9.9 °C 1005.3 hPa West 4.8 km/h 20.9 km/h 95 % 0.5 mm
Meteo18
Compliments of Weather Underground - 4 mb

Script developed by  Jim McMurry - jmcmurry@mwt.net Adapted for the template by  Wim van der Kuil - Leuven-Template.eu

You find our weather info also at:

European Weather Network

Weather Underground

Equipment we use:

Weather-station
Davis Vue

Weather-program
Meteohub

Weather-server
Raspberry PI 2 B+

Provider
1 and 1

Davis Vue

Meteohub

Raspberry PI 2 B+

1 and 1